createdAt,value
2023-03-03T00:03:04.579Z,4.82
2023-03-03T00:08:05.556Z,5.45
2023-03-03T00:13:16.326Z,4.70
2023-03-03T00:18:34.759Z,5.53
2023-03-03T00:23:41.777Z,4.95
2023-03-03T00:28:46.559Z,5.45
2023-03-03T00:33:56.647Z,5.05
2023-03-03T00:39:17.561Z,5.55
2023-03-03T00:44:40.552Z,4.97
2023-03-03T00:49:42.337Z,5.70
2023-03-03T00:54:43.352Z,5.68
2023-03-03T00:59:44.206Z,6.57
2023-03-03T01:04:50.258Z,5.82
2023-03-03T01:09:51.073Z,6.95
2023-03-03T01:14:54.049Z,6.55
2023-03-03T01:19:54.800Z,7.75
2023-03-03T01:24:56.756Z,6.47
2023-03-03T01:29:58.835Z,7.43
2023-03-03T01:34:59.722Z,7.82
2023-03-03T01:40:01.242Z,7.97
2023-03-03T01:45:22.390Z,7.70
2023-03-03T01:50:41.314Z,8.20
2023-03-03T01:55:44.433Z,8.15
2023-03-03T02:00:50.008Z,9.02
2023-03-03T02:05:56.965Z,8.88
2023-03-03T02:10:57.850Z,9.35
2023-03-03T02:16:00.164Z,8.65
2023-03-03T02:21:23.261Z,9.77
2023-03-03T02:26:26.676Z,9.77
2023-03-03T02:31:31.120Z,9.23
2023-03-03T02:36:34.946Z,10.07
2023-03-03T02:41:46.228Z,10.40
2023-03-03T02:46:49.784Z,11.35
2023-03-03T02:51:51.217Z,10.70
2023-03-03T02:56:52.067Z,11.35
2023-03-03T03:01:55.195Z,11.40
2023-03-03T03:06:56.584Z,11.73
2023-03-03T03:12:01.596Z,12.30
2023-03-03T03:17:03.982Z,12.85
2023-03-03T03:22:04.773Z,12.10
2023-03-03T03:27:08.037Z,15.33
2023-03-03T03:32:09.138Z,13.45
2023-03-03T03:37:10.072Z,14.27
2023-03-03T03:42:12.611Z,13.75
2023-03-03T03:47:13.643Z,14.43
2023-03-03T03:52:14.738Z,14.75
2023-03-03T03:57:15.833Z,15.00
2023-03-03T04:02:18.559Z,16.48
2023-03-03T04:07:19.814Z,17.90
2023-03-03T04:12:20.746Z,18.15
2023-03-03T04:17:24.139Z,18.17
2023-03-03T04:22:25.627Z,18.77
2023-03-03T04:27:26.528Z,19.62
2023-03-03T04:32:27.811Z,21.27
2023-03-03T04:37:29.049Z,20.50
2023-03-03T04:42:30.552Z,21.25
2023-03-03T04:47:31.973Z,20.67
2023-03-03T04:52:33.230Z,21.40
2023-03-03T04:57:34.309Z,21.10
2023-03-03T05:02:35.556Z,21.42
2023-03-03T05:07:36.632Z,22.90
2023-03-03T05:12:37.353Z,22.85
2023-03-03T05:17:38.143Z,22.92
2023-03-03T05:22:38.874Z,23.80
2023-03-03T05:27:39.835Z,22.20
2023-03-03T05:32:40.600Z,23.25
2023-03-03T05:37:46.329Z,23.25
2023-03-03T05:42:47.205Z,22.10
2023-03-03T05:47:48.113Z,22.23
2023-03-03T05:52:50.658Z,25.60
2023-03-03T05:57:51.491Z,24.57
2023-03-03T06:02:52.393Z,23.38
2023-03-03T06:07:53.333Z,22.70
2023-03-03T06:12:54.413Z,23.90
2023-03-03T06:17:55.223Z,24.17
2023-03-03T06:22:55.993Z,25.10
2023-03-03T06:27:57.257Z,25.40
2023-03-03T06:32:58.226Z,25.62
2023-03-03T06:37:59.121Z,26.23
2023-03-03T06:43:02.456Z,26.20
2023-03-03T06:53:13.307Z,24.33
2023-03-03T06:58:17.036Z,24.77
2023-03-03T07:03:22.343Z,25.62
2023-03-03T07:08:24.218Z,24.50
2023-03-03T07:13:29.115Z,23.80
2023-03-03T07:21:17.883Z,24.90
2023-03-03T07:26:29.907Z,24.63
2023-03-03T07:31:35.203Z,24.90
2023-03-03T07:36:37.012Z,25.58
2023-03-03T07:41:37.950Z,23.92
2023-03-03T07:46:44.105Z,23.35
2023-03-03T07:51:44.856Z,24.45
2023-03-03T07:56:46.658Z,24.58
2023-03-03T08:01:50.888Z,24.77
2023-03-03T08:06:54.727Z,23.80
2023-03-03T08:12:12.835Z,24.73
2023-03-03T08:17:36.162Z,24.92
2023-03-03T08:22:37.015Z,24.52
2023-03-03T08:27:37.782Z,24.98
2023-03-03T08:32:38.702Z,25.60
2023-03-03T08:37:39.597Z,25.48
2023-03-03T08:42:40.477Z,24.40
2023-03-03T08:47:42.470Z,25.45
2023-03-03T08:52:44.701Z,26.15
2023-03-03T08:57:45.530Z,25.92
2023-03-03T09:02:46.975Z,21.65
2023-03-03T09:07:50.562Z,24.90
2023-03-03T09:12:51.399Z,24.23
2023-03-03T09:17:52.627Z,23.00
2023-03-03T09:22:53.817Z,23.75
2023-03-03T09:27:54.818Z,25.92
2023-03-03T09:32:57.379Z,25.00
2023-03-03T09:37:58.142Z,18.30
2023-03-03T09:43:09.317Z,24.05
2023-03-03T09:49:18.821Z,23.80
2023-03-03T10:01:28.267Z,24.10
2023-03-03T10:06:53.948Z,24.85
2023-03-03T10:12:12.693Z,25.58
2023-03-03T10:19:55.145Z,23.58
2023-03-03T10:25:41.547Z,21.52
2023-03-03T10:32:40.478Z,21.98
2023-03-03T10:39:36.414Z,22.02
2023-03-03T10:45:10.789Z,23.23
2023-03-03T10:50:31.046Z,23.35
2023-03-03T10:57:44.366Z,23.12
2023-03-03T11:03:27.070Z,23.02
2023-03-03T11:08:40.842Z,24.27
2023-03-03T11:13:53.936Z,22.08
2023-03-03T11:19:58.929Z,22.50
2023-03-03T11:28:30.552Z,24.40
2023-03-03T11:34:00.907Z,23.55
2023-03-03T11:39:05.504Z,21.98
2023-03-03T11:44:28.429Z,21.62
2023-03-03T11:51:04.540Z,22.92
2023-03-03T11:56:49.251Z,21.55
2023-03-03T12:01:59.712Z,22.85
2023-03-03T12:07:19.458Z,22.95
2023-03-03T12:12:32.546Z,21.60
2023-03-03T12:18:14.646Z,20.50
2023-03-03T12:23:49.517Z,19.50
2023-03-03T12:29:02.198Z,19.42
2023-03-03T12:34:26.303Z,19.63
2023-03-03T12:42:47.956Z,20.30
2023-03-03T12:47:53.104Z,16.12
2023-03-03T12:53:10.959Z,17.55
2023-03-03T12:58:44.214Z,16.85
2023-03-03T13:05:40.106Z,17.42
2023-03-03T13:12:29.174Z,18.15
2023-03-03T13:20:43.921Z,18.95
2023-03-03T13:25:57.662Z,19.17
2023-03-03T13:31:07.928Z,19.55
2023-03-03T13:36:11.186Z,20.17
2023-03-03T13:41:31.441Z,19.00
2023-03-03T13:46:40.636Z,20.77
2023-03-03T13:51:59.775Z,19.02
2023-03-03T13:58:44.566Z,21.55
2023-03-03T14:05:35.481Z,22.45
2023-03-03T14:10:53.773Z,18.95
2023-03-03T14:16:10.777Z,21.25
2023-03-03T14:21:35.239Z,20.95
2023-03-03T14:26:50.656Z,23.25
2023-03-03T14:31:52.012Z,22.42
2023-03-03T14:37:00.110Z,21.25
2023-03-03T14:42:11.365Z,22.13
2023-03-03T14:47:26.903Z,23.20
2023-03-03T14:52:33.270Z,23.45
2023-03-03T14:57:47.906Z,25.52
2023-03-03T15:03:30.951Z,24.45
2023-03-03T15:08:38.309Z,25.00
2023-03-03T15:13:40.028Z,22.95
2023-03-03T15:24:05.569Z,24.23
2023-03-03T15:29:31.285Z,24.87
2023-03-03T15:36:21.721Z,23.92
2023-03-03T15:41:43.610Z,22.65
2023-03-03T15:47:27.929Z,22.98
2023-03-03T15:52:47.861Z,23.25
2023-03-03T15:58:30.005Z,21.98
2023-03-03T16:03:37.289Z,22.15
2023-03-03T16:10:15.504Z,22.27
2023-03-03T16:17:00.998Z,24.23
2023-03-03T16:23:50.521Z,26.67
2023-03-03T16:29:46.722Z,24.25
2023-03-03T16:35:15.710Z,24.98
2023-03-03T16:40:25.007Z,25.37
2023-03-03T16:45:32.931Z,23.60
2023-03-03T16:53:31.145Z,24.95
2023-03-03T16:58:57.361Z,24.60
2023-03-03T17:08:12.183Z,25.15
2023-03-03T17:14:54.953Z,25.08
2023-03-03T17:21:03.719Z,25.08
2023-03-03T17:31:50.044Z,24.80
2023-03-03T17:37:07.964Z,24.10
2023-03-03T17:42:25.147Z,26.00
2023-03-03T17:52:42.992Z,26.17
2023-03-03T17:59:22.161Z,24.55
2023-03-03T18:05:12.000Z,24.98
2023-03-03T18:10:47.947Z,25.98
2023-03-03T18:19:05.844Z,28.08
2023-03-03T18:24:35.943Z,27.02
2023-03-03T18:29:36.978Z,28.52
2023-03-03T18:34:40.066Z,27.67
2023-03-03T18:39:49.169Z,28.58
2023-03-03T18:44:49.910Z,30.55
2023-03-03T18:50:03.118Z,29.42
2023-03-03T18:55:25.228Z,30.25
2023-03-03T19:00:30.044Z,30.17
2023-03-03T19:05:46.876Z,31.70
2023-03-03T19:11:29.062Z,31.73
2023-03-03T19:16:30.311Z,32.25
2023-03-03T19:21:36.070Z,33.20
2023-03-03T19:26:57.999Z,33.05
2023-03-03T19:32:38.203Z,31.87
2023-03-03T19:38:18.619Z,37.20
2023-03-03T19:43:56.212Z,35.85
2023-03-03T19:49:36.641Z,33.65
2023-03-03T19:58:06.777Z,36.67
2023-03-03T20:03:41.479Z,31.85
2023-03-03T20:16:40.112Z,35.85
2023-03-03T20:23:22.545Z,43.63
2023-03-03T20:30:10.556Z,37.50
2023-03-03T20:35:30.906Z,41.92
2023-03-03T20:40:43.405Z,35.97
2023-03-03T20:46:03.477Z,39.83
2023-03-03T20:52:06.242Z,37.92
2023-03-03T20:57:22.543Z,38.60
2023-03-03T21:05:08.802Z,37.17
2023-03-03T21:10:23.179Z,38.63
2023-03-03T21:15:34.824Z,37.53
2023-03-03T21:20:36.018Z,36.65
2023-03-03T21:25:45.348Z,37.15
2023-03-03T21:37:42.102Z,38.92
2023-03-03T21:42:44.663Z,36.10
2023-03-03T21:47:46.406Z,37.20
2023-03-03T21:52:47.859Z,37.30
2023-03-03T21:57:48.773Z,35.35
2023-03-03T22:02:49.526Z,34.88
2023-03-03T22:07:50.267Z,36.92
2023-03-03T22:12:51.573Z,34.45
2023-03-03T22:17:52.421Z,35.88
2023-03-03T22:22:53.364Z,32.45
2023-03-03T22:27:54.326Z,31.95
2023-03-03T22:32:55.184Z,34.95
2023-03-03T22:37:58.981Z,37.20
2023-03-03T22:42:59.918Z,35.58
2023-03-03T22:48:00.987Z,36.95
2023-03-03T22:53:01.699Z,36.38
2023-03-03T22:58:09.329Z,32.63
2023-03-03T23:03:11.090Z,32.50
2023-03-03T23:08:14.258Z,34.22
2023-03-03T23:13:15.607Z,33.05
2023-03-03T23:18:16.577Z,36.33
2023-03-03T23:23:17.355Z,35.35
2023-03-03T23:28:18.502Z,34.08
2023-03-03T23:33:19.627Z,34.60
2023-03-03T23:38:20.531Z,33.53
2023-03-03T23:43:21.330Z,33.28
2023-03-03T23:48:22.248Z,34.75
2023-03-03T23:53:22.968Z,32.05
2023-03-03T23:58:23.779Z,34.30
